Mississippi Star — 9HA2441 — position and weather

sailwx.info

Track history (hours):
 
Tides and Currents Weather Stations Pressure Air Temp Water Temp Dewpoint Dewpoint Depression Visibility Wind Speed Wind Dir Waves Ship Positions

Mississippi Star

Last reported at 2017-Jan-16 10:33 UTC. Time now 2017-Jan-16 10:58 UTC.
Position N 53°38' W 000°10'.

Length 128 m; draft 6.3 m.

Type: Ship. MMSI: 248621000.

Date/timePositionNaut miles runAvg speedWind from/ knotsBaromVisibWave heightAir tempDewpointWater temp
2017-Jan-16 10:33N 53°38' W 000°10'0 0.0
2017-Jan-16 09:33N 53°38' W 000°10'0 0.0
2017-Jan-16 08:33N 53°38' W 000°10'0 0.0
2017-Jan-16 07:33N 53°38' W 000°10'0 0.0
2017-Jan-16 06:33N 53°38' W 000°10'0 0.0
2017-Jan-16 05:33N 53°38' W 000°10'0 0.0
2017-Jan-16 04:33N 53°38' W 000°10'0 0.0
2017-Jan-16 03:33N 53°38' W 000°10'0 0.0
2017-Jan-16 02:33N 53°38' W 000°10'0 0.0
2017-Jan-16 01:33N 53°38' W 000°10'0 0.0
2017-Jan-16 00:30N 53°38' W 000°10'0 0.0
2017-Jan-15 23:27N 53°38' W 000°10'0 0.0
2017-Jan-15 22:33N 53°38' W 000°10'0 0.0
2017-Jan-15 21:33N 53°38' W 000°10'0 0.0
2017-Jan-15 20:33N 53°38' W 000°10'0 0.0
2017-Jan-15 19:33N 53°38' W 000°10'0 0.0
2017-Jan-15 18:33N 53°38' W 000°10'0 0.0
2017-Jan-15 17:33N 53°38' W 000°10'0 0.0
2017-Jan-15 16:33N 53°38' W 000°10'0 0.0
2017-Jan-15 15:33N 53°38' W 000°10'0 0.0
2017-Jan-15 14:33N 53°38' W 000°10'2 1.9
2017-Jan-15 13:33N 53°37' W 000°06'8 8.5
2017-Jan-15 12:34N 53°34' E 000°07'54 7.7
2017-Jan-15 05:33N 53°09' E 001°27'1413.6
2017-Jan-15 04:33N 52°60' E 001°44'1514.6
2017-Jan-15 03:33N 52°51' E 002°04'77 9.2
2017-Jan-14 19:11N 51°46' E 003°10'6 9.6
2017-Jan-14 18:33N 51°42' E 003°18'1212.0
2017-Jan-14 17:34N 51°31' E 003°26'1212.0
2017-Jan-14 16:33N 51°25' E 003°43'9 9.2
2017-Jan-14 15:33N 51°24' E 003°57'6 6.2
2017-Jan-14 14:33N 51°22' E 004°07'7 6.7
2017-Jan-14 13:34N 51°21' E 004°17'0 0.0
2017-Jan-14 12:33N 51°21' E 004°17'1 0.7
2017-Jan-14 11:33N 51°20' E 004°18'3 2.8
2017-Jan-14 10:24N 51°17' E 004°20'0 0.0
2017-Jan-14 09:33N 51°17' E 004°20'0 0.0
2017-Jan-14 08:33N 51°17' E 004°20'0 0.0
2017-Jan-14 07:33N 51°17' E 004°20'0 0.0
2017-Jan-14 06:33N 51°17' E 004°20'0 0.0
2017-Jan-14 05:33N 51°17' E 004°20'0 0.0
2017-Jan-14 04:33N 51°17' E 004°20'0 0.0
2017-Jan-14 03:24N 51°17' E 004°20'0 0.0
2017-Jan-13 23:33N 51°17' E 004°20'0 0.0
2017-Jan-13 22:33N 51°17' E 004°20'0 0.0
2017-Jan-13 21:33N 51°17' E 004°20'0 0.0
2017-Jan-13 20:33N 51°17' E 004°20'0 0.0
2017-Jan-13 19:33N 51°17' E 004°20'0 0.0
2017-Jan-13 18:21N 51°17' E 004°20'0 0.0
2017-Jan-13 17:21N 51°17' E 004°20'0 0.0
2017-Jan-13 16:33N 51°17' E 004°20'0 0.0
2017-Jan-13 15:33N 51°17' E 004°20'0 0.0
2017-Jan-13 14:27N 51°17' E 004°20'0 0.0
2017-Jan-13 13:33N 51°17' E 004°20'0 0.0
2017-Jan-13 12:33N 51°17' E 004°20'0 0.0
2017-Jan-13 11:27N 51°17' E 004°20'0 0.0
2017-Jan-13 10:33N 51°17' E 004°20'0 0.0
2017-Jan-13 09:15N 51°17' E 004°20'0 0.0
2017-Jan-13 08:27N 51°17' E 004°20'0 0.0
2017-Jan-13 07:27N 51°17' E 004°20'0 0.0
2017-Jan-13 05:33N 51°17' E 004°20'0 0.0
2017-Jan-13 03:27N 51°17' E 004°20'0 0.0
2017-Jan-13 01:33N 51°17' E 004°20'0 0.0
2017-Jan-13 00:33N 51°17' E 004°20'0 0.0
2017-Jan-12 22:30N 51°17' E 004°20'0 0.0
2017-Jan-12 19:26N 51°17' E 004°20'0 0.0
2017-Jan-12 18:33N 51°17' E 004°20'1 0.9
2017-Jan-12 17:33N 51°18' E 004°20'3 3.0
2017-Jan-12 16:33N 51°21' E 004°17'0 0.0
2017-Jan-12 15:33N 51°21' E 004°17'6 5.6
2017-Jan-12 14:31N 51°22' E 004°08'9 8.4
2017-Jan-12 13:29N 51°22' E 003°54'1211.4
2017-Jan-12 12:25N 51°26' E 003°36'8 9.8
2017-Jan-12 11:33N 51°31' E 003°26'1211.8
2017-Jan-12 10:33N 51°42' E 003°17'12 9.3
2017-Jan-12 09:17N 51°45' E 002°58'  
2017-Jan-07 19:28N 56°18' W 002°18'1112.2
2017-Jan-07 18:33N 56°09' W 002°32'1212.4
2017-Jan-07 17:33N 56°05' W 002°53'1212.0
2017-Jan-07 16:33N 56°02' W 003°14'  
Track history (hours):
 
Tides and Currents Weather Stations Pressure Air Temp Water Temp Dewpoint Dewpoint Depression Visibility Wind Speed Wind Dir Waves Ship Positions

Mississippi Star

Last reported at 2017-Jan-16 10:33 UTC. Time now 2017-Jan-16 10:58 UTC.
Position N 53°38' W 000°10'.

Length 128 m; draft 6.3 m.

Type: Ship. MMSI: 248621000.

Date/timePositionNaut miles runAvg speedWind from/ knotsBaromVisibWave heightAir tempDewpointWater temp
2017-Jan-16 10:33N 53°38' W 000°10'0 0.0
2017-Jan-16 09:33N 53°38' W 000°10'0 0.0
2017-Jan-16 08:33N 53°38' W 000°10'0 0.0
2017-Jan-16 07:33N 53°38' W 000°10'0 0.0
2017-Jan-16 06:33N 53°38' W 000°10'0 0.0
2017-Jan-16 05:33N 53°38' W 000°10'0 0.0
2017-Jan-16 04:33N 53°38' W 000°10'0 0.0
2017-Jan-16 03:33N 53°38' W 000°10'0 0.0
2017-Jan-16 02:33N 53°38' W 000°10'0 0.0
2017-Jan-16 01:33N 53°38' W 000°10'0 0.0
2017-Jan-16 00:30N 53°38' W 000°10'0 0.0
2017-Jan-15 23:27N 53°38' W 000°10'0 0.0
2017-Jan-15 22:33N 53°38' W 000°10'0 0.0
2017-Jan-15 21:33N 53°38' W 000°10'0 0.0
2017-Jan-15 20:33N 53°38' W 000°10'0 0.0
2017-Jan-15 19:33N 53°38' W 000°10'0 0.0
2017-Jan-15 18:33N 53°38' W 000°10'0 0.0
2017-Jan-15 17:33N 53°38' W 000°10'0 0.0
2017-Jan-15 16:33N 53°38' W 000°10'0 0.0
2017-Jan-15 15:33N 53°38' W 000°10'0 0.0
2017-Jan-15 14:33N 53°38' W 000°10'2 1.9
2017-Jan-15 13:33N 53°37' W 000°06'8 8.5
2017-Jan-15 12:34N 53°34' E 000°07'54 7.7
2017-Jan-15 05:33N 53°09' E 001°27'1413.6
2017-Jan-15 04:33N 52°60' E 001°44'1514.6
2017-Jan-15 03:33N 52°51' E 002°04'77 9.2
2017-Jan-14 19:11N 51°46' E 003°10'6 9.6
2017-Jan-14 18:33N 51°42' E 003°18'1212.0
2017-Jan-14 17:34N 51°31' E 003°26'1212.0
2017-Jan-14 16:33N 51°25' E 003°43'9 9.2
2017-Jan-14 15:33N 51°24' E 003°57'6 6.2
2017-Jan-14 14:33N 51°22' E 004°07'7 6.7
2017-Jan-14 13:34N 51°21' E 004°17'0 0.0
2017-Jan-14 12:33N 51°21' E 004°17'1 0.7
2017-Jan-14 11:33N 51°20' E 004°18'3 2.8
2017-Jan-14 10:24N 51°17' E 004°20'0 0.0
2017-Jan-14 09:33N 51°17' E 004°20'0 0.0
2017-Jan-14 08:33N 51°17' E 004°20'0 0.0
2017-Jan-14 07:33N 51°17' E 004°20'0 0.0
2017-Jan-14 06:33N 51°17' E 004°20'0 0.0
2017-Jan-14 05:33N 51°17' E 004°20'0 0.0
2017-Jan-14 04:33N 51°17' E 004°20'0 0.0
2017-Jan-14 03:24N 51°17' E 004°20'0 0.0
2017-Jan-13 23:33N 51°17' E 004°20'0 0.0
2017-Jan-13 22:33N 51°17' E 004°20'0 0.0
2017-Jan-13 21:33N 51°17' E 004°20'0 0.0
2017-Jan-13 20:33N 51°17' E 004°20'0 0.0
2017-Jan-13 19:33N 51°17' E 004°20'0 0.0
2017-Jan-13 18:21N 51°17' E 004°20'0 0.0
2017-Jan-13 17:21N 51°17' E 004°20'0 0.0
2017-Jan-13 16:33N 51°17' E 004°20'0 0.0
2017-Jan-13 15:33N 51°17' E 004°20'0 0.0
2017-Jan-13 14:27N 51°17' E 004°20'0 0.0
2017-Jan-13 13:33N 51°17' E 004°20'0 0.0
2017-Jan-13 12:33N 51°17' E 004°20'0 0.0
2017-Jan-13 11:27N 51°17' E 004°20'0 0.0
2017-Jan-13 10:33N 51°17' E 004°20'0 0.0
2017-Jan-13 09:15N 51°17' E 004°20'0 0.0
2017-Jan-13 08:27N 51°17' E 004°20'0 0.0
2017-Jan-13 07:27N 51°17' E 004°20'0 0.0
2017-Jan-13 05:33N 51°17' E 004°20'0 0.0
2017-Jan-13 03:27N 51°17' E 004°20'0 0.0
2017-Jan-13 01:33N 51°17' E 004°20'0 0.0
2017-Jan-13 00:33N 51°17' E 004°20'0 0.0
2017-Jan-12 22:30N 51°17' E 004°20'0 0.0
2017-Jan-12 19:26N 51°17' E 004°20'0 0.0
2017-Jan-12 18:33N 51°17' E 004°20'1 0.9
2017-Jan-12 17:33N 51°18' E 004°20'3 3.0
2017-Jan-12 16:33N 51°21' E 004°17'0 0.0
2017-Jan-12 15:33N 51°21' E 004°17'6 5.6
2017-Jan-12 14:31N 51°22' E 004°08'9 8.4
2017-Jan-12 13:29N 51°22' E 003°54'1211.4
2017-Jan-12 12:25N 51°26' E 003°36'8 9.8
2017-Jan-12 11:33N 51°31' E 003°26'1211.8
2017-Jan-12 10:33N 51°42' E 003°17'12 9.3
2017-Jan-12 09:17N 51°45' E 002°58'  
2017-Jan-07 19:28N 56°18' W 002°18'1112.2
2017-Jan-07 18:33N 56°09' W 002°32'1212.4
2017-Jan-07 17:33N 56°05' W 002°53'1212.0
2017-Jan-07 16:33N 56°02' W 003°14'  

Dump ship's entire track history